createdAt,value
2022-11-16T00:01:42.537Z,9.41
2022-11-16T00:04:12.844Z,9.42
2022-11-16T00:06:41.179Z,9.42
2022-11-16T00:09:23.406Z,9.42
2022-11-16T00:11:52.838Z,9.43
2022-11-16T00:14:21.199Z,9.44
2022-11-16T00:16:51.467Z,9.45
2022-11-16T00:19:19.717Z,9.38
2022-11-16T00:21:47.959Z,9.47
2022-11-16T00:24:17.240Z,9.47
2022-11-16T00:26:45.518Z,9.48
2022-11-16T00:29:16.046Z,9.48
2022-11-16T00:31:45.952Z,9.46
2022-11-16T00:34:15.398Z,9.42
2022-11-16T00:36:43.635Z,9.34
2022-11-16T00:39:12.724Z,9.33
2022-11-16T00:41:40.627Z,9.34
2022-11-16T00:44:08.739Z,9.36
2022-11-16T00:46:36.710Z,9.37
2022-11-16T00:49:05.454Z,9.36
2022-11-16T00:51:36.001Z,9.34
2022-11-16T00:54:05.771Z,9.31
2022-11-16T00:56:36.202Z,9.26
2022-11-16T00:59:05.420Z,9.35
2022-11-16T01:01:34.228Z,9.33
2022-11-16T01:04:02.552Z,9.28
2022-11-16T01:06:30.376Z,9.35
2022-11-16T01:08:59.551Z,9.37
2022-11-16T01:11:44.759Z,9.35
2022-11-16T01:14:12.875Z,9.40
2022-11-16T01:16:43.259Z,9.40
2022-11-16T01:19:11.477Z,9.42
2022-11-16T01:21:39.307Z,9.44
2022-11-16T01:24:08.938Z,9.46
2022-11-16T01:26:36.828Z,9.46
2022-11-16T01:29:05.112Z,9.46
2022-11-16T01:31:37.239Z,9.47
2022-11-16T01:34:05.861Z,9.42
2022-11-16T01:36:35.443Z,9.27
2022-11-16T01:39:03.952Z,9.23
2022-11-16T01:41:44.238Z,9.25
2022-11-16T01:44:59.863Z,9.21
2022-11-16T01:47:28.335Z,9.20
2022-11-16T01:50:03.365Z,9.23
2022-11-16T01:52:37.499Z,9.25
2022-11-16T01:55:06.063Z,9.30
2022-11-16T01:57:50.908Z,9.30
2022-11-16T02:00:19.922Z,9.36
2022-11-16T02:03:04.752Z,9.37
2022-11-16T02:05:51.352Z,9.40
2022-11-16T02:08:49.282Z,9.37
2022-11-16T02:11:30.835Z,9.37
2022-11-16T02:14:12.584Z,9.35
2022-11-16T02:16:51.718Z,9.35
2022-11-16T02:19:58.646Z,9.35
2022-11-16T02:22:39.727Z,9.33
2022-11-16T02:25:13.710Z,9.33
2022-11-16T02:28:04.751Z,9.34
2022-11-16T02:30:34.886Z,9.35
2022-11-16T02:33:05.735Z,9.19
2022-11-16T02:35:41.434Z,9.26
2022-11-16T02:38:14.347Z,9.25
2022-11-16T02:40:46.208Z,9.20
2022-11-16T02:43:23.026Z,9.22
2022-11-16T02:45:56.776Z,9.19
2022-11-16T02:48:32.394Z,9.18
2022-11-16T02:51:04.152Z,9.19
2022-11-16T02:53:37.944Z,9.19
2022-11-16T02:56:06.635Z,9.19
2022-11-16T02:58:34.925Z,9.11
2022-11-16T03:01:09.688Z,9.16
2022-11-16T03:03:46.511Z,9.17
2022-11-16T03:06:21.128Z,9.14
2022-11-16T03:08:54.915Z,9.05
2022-11-16T03:11:40.294Z,9.07
2022-11-16T03:14:14.937Z,9.09
2022-11-16T03:16:48.535Z,9.09
2022-11-16T03:19:20.855Z,9.07
2022-11-16T03:21:52.861Z,9.02
2022-11-16T03:24:21.638Z,8.98
2022-11-16T03:26:55.294Z,8.96
2022-11-16T03:29:31.443Z,8.96
2022-11-16T03:32:10.640Z,8.98
2022-11-16T03:34:41.770Z,8.98
2022-11-16T03:37:11.344Z,8.93
2022-11-16T03:39:40.545Z,8.82
2022-11-16T03:42:14.023Z,8.88
2022-11-16T03:44:46.118Z,8.86
2022-11-16T03:47:15.483Z,8.88
2022-11-16T03:49:45.855Z,8.87
2022-11-16T03:52:16.871Z,8.83
2022-11-16T03:54:45.046Z,8.79
2022-11-16T03:57:17.375Z,8.71
2022-11-16T03:59:47.220Z,8.68
2022-11-16T04:02:16.475Z,8.65
2022-11-16T04:05:01.771Z,8.60
2022-11-16T04:07:47.173Z,8.52
2022-11-16T04:10:33.409Z,8.49
2022-11-16T04:13:20.439Z,8.47
2022-11-16T04:16:05.654Z,8.45
2022-11-16T04:18:52.799Z,8.44
2022-11-16T04:21:43.694Z,8.54
2022-11-16T04:24:16.347Z,8.64
2022-11-16T04:27:03.548Z,8.73
2022-11-16T04:29:31.858Z,8.78
2022-11-16T04:32:17.157Z,8.75
2022-11-16T04:35:04.014Z,8.73
2022-11-16T04:37:50.046Z,8.78
2022-11-16T04:40:25.071Z,8.82
2022-11-16T04:42:54.848Z,8.87
2022-11-16T04:45:41.575Z,8.86
2022-11-16T04:48:11.047Z,8.88
2022-11-16T04:50:41.834Z,8.84
2022-11-16T04:53:09.902Z,8.80
2022-11-16T04:55:45.508Z,8.82
2022-11-16T04:58:15.070Z,8.85
2022-11-16T05:00:43.325Z,8.87
2022-11-16T05:03:11.839Z,8.92
2022-11-16T05:05:41.451Z,8.96
2022-11-16T05:08:09.431Z,8.98
2022-11-16T05:10:38.215Z,9.02
2022-11-16T05:13:06.131Z,9.03
2022-11-16T05:15:34.894Z,9.05
2022-11-16T05:18:03.535Z,9.03
2022-11-16T05:20:49.246Z,9.10
2022-11-16T05:23:35.891Z,9.09
2022-11-16T05:26:10.042Z,9.10
2022-11-16T05:28:39.098Z,9.13
2022-11-16T05:31:08.317Z,9.16
2022-11-16T05:33:36.767Z,9.15
2022-11-16T05:36:05.287Z,9.19
2022-11-16T05:38:34.764Z,9.18
2022-11-16T05:41:02.696Z,9.20
2022-11-16T05:43:31.342Z,9.18
2022-11-16T05:46:14.352Z,9.16
2022-11-16T05:48:42.184Z,9.18
2022-11-16T05:51:10.060Z,9.18
2022-11-16T05:53:39.196Z,9.19
2022-11-16T05:56:08.287Z,9.19
2022-11-16T05:58:39.572Z,9.18
2022-11-16T06:01:07.388Z,9.21
2022-11-16T06:03:36.429Z,9.18
2022-11-16T06:06:05.784Z,9.14
2022-11-16T06:08:33.991Z,9.14
2022-11-16T06:11:09.564Z,9.13
2022-11-16T06:13:38.495Z,9.11
2022-11-16T06:16:07.971Z,9.13
2022-11-16T06:18:39.303Z,9.16
2022-11-16T06:21:08.101Z,9.17
2022-11-16T06:23:35.980Z,9.16
2022-11-16T06:26:04.592Z,9.16
2022-11-16T06:28:35.650Z,9.13
2022-11-16T06:31:04.908Z,9.11
2022-11-16T06:33:37.350Z,9.09
2022-11-16T06:36:10.094Z,9.08
2022-11-16T06:38:38.462Z,9.15
2022-11-16T06:41:06.846Z,9.09
2022-11-16T06:43:41.904Z,9.18
2022-11-16T06:46:09.931Z,9.19
2022-11-16T06:48:40.085Z,9.15
2022-11-16T06:51:12.370Z,9.09
2022-11-16T06:53:40.279Z,9.03
2022-11-16T06:56:11.251Z,8.98
2022-11-16T06:58:45.357Z,8.95
2022-11-16T07:01:15.319Z,9.02
2022-11-16T07:03:45.483Z,9.06
2022-11-16T07:06:15.203Z,9.10
2022-11-16T07:08:46.037Z,9.13
2022-11-16T07:11:17.136Z,9.07
2022-11-16T07:13:46.304Z,8.98
2022-11-16T07:16:14.620Z,8.96
2022-11-16T07:18:49.775Z,8.89
2022-11-16T07:21:17.874Z,8.84
2022-11-16T07:23:46.574Z,8.77
2022-11-16T07:26:19.610Z,8.74
2022-11-16T07:28:54.654Z,8.71
2022-11-16T07:31:23.918Z,8.77
2022-11-16T07:34:11.680Z,8.73
2022-11-16T07:36:45.918Z,8.63
2022-11-16T07:39:13.964Z,8.63
2022-11-16T07:41:44.236Z,8.51
2022-11-16T07:44:33.675Z,8.52
2022-11-16T07:47:11.509Z,8.58
2022-11-16T07:49:39.544Z,8.65
2022-11-16T07:52:14.455Z,8.65
2022-11-16T07:54:53.859Z,8.67
2022-11-16T07:57:25.039Z,8.70
2022-11-16T07:59:56.266Z,8.71
2022-11-16T08:02:24.397Z,8.75
2022-11-16T08:04:53.342Z,8.79
2022-11-16T08:07:26.079Z,8.83
2022-11-16T08:09:57.079Z,8.87
2022-11-16T08:12:25.073Z,8.89
2022-11-16T08:14:54.022Z,8.91
2022-11-16T08:17:23.252Z,8.99
2022-11-16T08:19:51.398Z,9.07
2022-11-16T08:22:19.513Z,9.18
2022-11-16T08:24:47.737Z,9.33
2022-11-16T08:27:17.397Z,9.44
2022-11-16T08:29:48.248Z,9.49
2022-11-16T08:32:16.820Z,9.52
2022-11-16T08:34:46.677Z,9.56
2022-11-16T08:37:14.637Z,9.68
2022-11-16T08:39:46.288Z,9.77
2022-11-16T08:42:14.182Z,9.80
2022-11-16T08:44:46.574Z,9.95
2022-11-16T08:47:16.377Z,10.11
2022-11-16T08:50:05.006Z,10.19
2022-11-16T08:52:33.584Z,10.21
2022-11-16T08:55:02.706Z,10.20
2022-11-16T08:57:31.243Z,10.18
2022-11-16T09:00:01.713Z,10.19
2022-11-16T09:02:29.551Z,10.30
2022-11-16T09:04:57.376Z,10.41
2022-11-16T09:07:26.608Z,10.36
2022-11-16T09:09:54.466Z,10.44
2022-11-16T09:12:22.271Z,10.48
2022-11-16T09:14:50.080Z,10.56
2022-11-16T09:17:22.959Z,10.55
2022-11-16T09:19:51.220Z,10.75
2022-11-16T09:22:19.059Z,10.85
2022-11-16T09:24:48.605Z,10.93
2022-11-16T09:27:16.874Z,10.99
2022-11-16T09:29:44.778Z,11.04
2022-11-16T09:32:12.631Z,11.06
2022-11-16T09:34:40.420Z,11.09
2022-11-16T09:37:11.502Z,11.07
2022-11-16T09:39:39.294Z,11.02
2022-11-16T09:42:22.718Z,10.97
2022-11-16T09:45:08.532Z,10.96
2022-11-16T09:47:45.633Z,10.94
2022-11-16T09:50:26.535Z,10.89
2022-11-16T09:52:57.338Z,10.83
2022-11-16T09:55:28.899Z,10.82
2022-11-16T09:58:00.951Z,10.79
2022-11-16T10:00:31.707Z,10.75
2022-11-16T10:03:05.095Z,10.67
2022-11-16T10:05:38.410Z,10.68
2022-11-16T10:08:14.293Z,10.55
2022-11-16T10:10:52.467Z,10.42
2022-11-16T10:13:32.404Z,10.33
2022-11-16T10:16:13.326Z,10.39
2022-11-16T10:18:53.606Z,10.45
2022-11-16T10:21:46.422Z,10.46
2022-11-16T10:24:27.023Z,10.39
2022-11-16T10:27:05.755Z,10.19
2022-11-16T10:29:47.670Z,10.20
2022-11-16T10:32:25.946Z,10.07
2022-11-16T10:34:56.262Z,10.17
2022-11-16T10:37:30.275Z,10.16
2022-11-16T10:39:58.370Z,10.12
2022-11-16T10:42:35.839Z,10.11
2022-11-16T10:45:14.255Z,10.13
2022-11-16T10:47:50.059Z,10.14
2022-11-16T10:50:31.814Z,10.15
2022-11-16T10:53:00.127Z,10.13
2022-11-16T10:55:29.301Z,10.11
2022-11-16T10:57:59.659Z,10.20
2022-11-16T11:00:37.506Z,10.28
2022-11-16T11:03:05.659Z,10.33
2022-11-16T11:05:35.531Z,10.36
2022-11-16T11:08:06.299Z,10.36
2022-11-16T11:10:36.847Z,10.45
2022-11-16T11:13:27.292Z,10.49
2022-11-16T11:16:15.970Z,10.48
2022-11-16T11:18:43.890Z,10.44
2022-11-16T11:21:18.605Z,10.39
2022-11-16T11:23:48.683Z,10.22
2022-11-16T11:26:37.335Z,10.23
2022-11-16T11:29:17.692Z,10.23
2022-11-16T11:31:50.634Z,10.17
2022-11-16T11:34:21.568Z,10.16
2022-11-16T11:36:53.252Z,10.16
2022-11-16T11:39:30.983Z,10.15
2022-11-16T11:42:05.372Z,10.18
2022-11-16T11:44:39.498Z,10.13
2022-11-16T11:50:18.595Z,10.22
2022-11-16T11:52:58.924Z,10.21
2022-11-16T11:55:27.271Z,10.11
2022-11-16T11:57:57.253Z,10.22
2022-11-16T12:00:26.111Z,10.16
2022-11-16T12:03:41.519Z,10.23
2022-11-16T12:06:19.630Z,10.31
2022-11-16T12:09:19.948Z,10.30
2022-11-16T12:11:59.230Z,10.25
2022-11-16T12:14:52.391Z,10.16
2022-11-16T12:17:29.349Z,10.23
2022-11-16T12:20:10.057Z,10.29
2022-11-16T12:23:03.724Z,10.29
2022-11-16T12:25:39.271Z,10.26
2022-11-16T12:28:24.465Z,10.23
2022-11-16T12:31:03.418Z,10.20
2022-11-16T12:33:43.964Z,10.23
2022-11-16T12:36:25.715Z,10.20
2022-11-16T12:39:05.192Z,10.21
2022-11-16T12:41:53.465Z,10.20
2022-11-16T12:44:30.417Z,10.18
2022-11-16T12:47:08.364Z,10.16
2022-11-16T12:49:52.320Z,10.16
2022-11-16T12:52:38.351Z,10.17
2022-11-16T12:55:25.775Z,10.20
2022-11-16T12:58:11.460Z,10.17
2022-11-16T13:01:03.697Z,10.18
2022-11-16T13:03:42.630Z,10.20
2022-11-16T13:06:14.280Z,10.21
2022-11-16T13:08:50.165Z,10.19
2022-11-16T13:11:23.793Z,10.18
2022-11-16T13:13:59.291Z,10.17
2022-11-16T13:16:28.503Z,10.15
2022-11-16T13:18:57.137Z,10.17
2022-11-16T13:21:44.511Z,10.20
2022-11-16T13:24:34.259Z,10.19
2022-11-16T13:27:15.745Z,10.19
2022-11-16T13:29:47.436Z,10.19
2022-11-16T13:32:21.337Z,10.16
2022-11-16T13:34:50.290Z,10.18
2022-11-16T13:37:44.305Z,10.22
2022-11-16T13:40:26.245Z,10.29
2022-11-16T13:43:18.779Z,10.35
2022-11-16T13:45:57.954Z,10.39
2022-11-16T13:48:31.353Z,10.40
2022-11-16T13:51:02.107Z,10.48
2022-11-16T13:56:28.670Z,10.52
2022-11-16T13:58:59.448Z,10.53
2022-11-16T14:01:57.573Z,10.53
2022-11-16T14:04:40.386Z,10.53
2022-11-16T14:07:29.894Z,10.48
2022-11-16T14:09:57.794Z,10.53
2022-11-16T14:12:58.081Z,10.53
2022-11-16T14:15:32.271Z,10.51
2022-11-16T14:18:36.991Z,10.49
2022-11-16T14:21:14.507Z,10.45
2022-11-16T14:24:16.455Z,10.42
2022-11-16T14:26:57.439Z,10.39
2022-11-16T14:29:51.193Z,10.32
2022-11-16T14:32:22.893Z,10.27
2022-11-16T14:34:52.847Z,10.23
2022-11-16T14:37:33.485Z,10.18
2022-11-16T14:40:05.771Z,10.16
2022-11-16T14:43:01.545Z,10.13
2022-11-16T14:45:29.246Z,10.08
2022-11-16T14:48:02.097Z,10.11
2022-11-16T14:50:30.293Z,10.10
2022-11-16T14:53:03.161Z,10.09
2022-11-16T14:55:31.073Z,10.07
2022-11-16T14:58:09.366Z,10.07
2022-11-16T15:00:39.578Z,10.06
2022-11-16T15:03:12.705Z,10.05
2022-11-16T15:05:40.943Z,10.03
2022-11-16T15:08:22.064Z,10.02
2022-11-16T15:10:52.581Z,10.01
2022-11-16T15:13:23.290Z,10.00
2022-11-16T15:16:09.488Z,10.01
2022-11-16T15:18:37.381Z,10.01
2022-11-16T15:21:05.263Z,10.01
2022-11-16T15:23:33.420Z,10.01
2022-11-16T15:26:02.381Z,9.98
2022-11-16T15:28:32.871Z,10.02
2022-11-16T15:31:04.787Z,10.04
2022-11-16T15:33:36.931Z,10.03
2022-11-16T15:36:22.742Z,10.05
2022-11-16T15:38:52.366Z,9.94
2022-11-16T15:41:20.704Z,10.05
2022-11-16T15:44:12.175Z,10.02
2022-11-16T15:46:43.563Z,10.02
2022-11-16T15:49:23.202Z,9.98
2022-11-16T15:51:51.010Z,9.99
2022-11-16T15:54:25.221Z,10.00
2022-11-16T15:56:56.030Z,9.98
2022-11-16T15:59:28.503Z,9.93
2022-11-16T16:01:57.721Z,9.97
2022-11-16T16:04:26.899Z,9.99
2022-11-16T16:06:56.590Z,9.95
2022-11-16T16:09:27.288Z,10.00
2022-11-16T16:11:56.482Z,9.96
2022-11-16T16:14:27.000Z,10.02
2022-11-16T16:16:57.825Z,10.00
2022-11-16T16:19:33.411Z,10.00
2022-11-16T16:22:01.890Z,9.99
2022-11-16T16:24:42.069Z,10.00
2022-11-16T16:27:12.383Z,10.00
2022-11-16T16:29:40.309Z,10.00
2022-11-16T16:32:15.101Z,9.95
2022-11-16T16:34:43.093Z,9.94
2022-11-16T16:37:16.039Z,9.94
2022-11-16T16:39:43.961Z,9.93
2022-11-16T16:42:14.223Z,9.94
2022-11-16T16:44:42.454Z,9.94
2022-11-16T16:47:12.239Z,9.91
2022-11-16T16:49:40.476Z,9.91
2022-11-16T16:52:08.675Z,9.90
2022-11-16T16:54:36.476Z,9.88
2022-11-16T16:57:04.437Z,9.88
2022-11-16T16:59:32.282Z,9.87
2022-11-16T17:02:00.433Z,9.89
2022-11-16T17:04:29.782Z,9.89
2022-11-16T17:06:57.661Z,9.88
2022-11-16T17:09:25.471Z,9.87
2022-11-16T17:11:53.286Z,9.85
2022-11-16T17:14:24.339Z,9.83
2022-11-16T17:16:52.432Z,9.79
2022-11-16T17:19:20.997Z,9.80
2022-11-16T17:21:51.996Z,9.80
2022-11-16T17:24:20.039Z,9.81
2022-11-16T17:26:48.783Z,9.80
2022-11-16T17:29:16.641Z,9.79
2022-11-16T17:31:44.869Z,9.76
2022-11-16T17:34:14.040Z,9.77
2022-11-16T17:36:42.467Z,9.79
2022-11-16T17:39:11.826Z,9.81
2022-11-16T17:41:39.628Z,9.81
2022-11-16T17:44:07.530Z,9.79
2022-11-16T17:46:35.755Z,9.77
2022-11-16T17:49:03.827Z,9.77
2022-11-16T17:51:31.736Z,9.75
2022-11-16T17:53:59.612Z,9.78
2022-11-16T17:56:29.685Z,9.78
2022-11-16T17:58:58.448Z,9.79
2022-11-16T18:01:27.131Z,9.78
2022-11-16T18:03:55.319Z,9.75
2022-11-16T18:06:25.037Z,9.75
2022-11-16T18:08:53.566Z,9.76
2022-11-16T18:11:23.095Z,9.73
2022-11-16T18:13:55.411Z,9.75
2022-11-16T18:16:25.691Z,9.76
2022-11-16T18:18:57.278Z,9.73
2022-11-16T18:21:25.680Z,9.73
2022-11-16T18:23:53.904Z,9.74
2022-11-16T18:26:23.342Z,9.72
2022-11-16T18:28:52.515Z,9.71
2022-11-16T18:31:23.167Z,9.67
2022-11-16T18:33:52.008Z,9.72
2022-11-16T18:36:21.628Z,9.69
2022-11-16T18:38:49.666Z,9.67
2022-11-16T18:41:20.214Z,9.65
2022-11-16T18:43:52.989Z,9.66
2022-11-16T18:46:24.166Z,9.67
2022-11-16T18:48:52.444Z,9.64
2022-11-16T18:51:21.459Z,9.71
2022-11-16T18:53:49.680Z,9.72
2022-11-16T18:56:18.086Z,9.70
2022-11-16T18:58:51.457Z,9.69
2022-11-16T19:01:23.721Z,9.71
2022-11-16T19:03:52.596Z,9.71
2022-11-16T19:06:21.055Z,9.66
2022-11-16T19:08:55.357Z,9.66
2022-11-16T19:11:25.323Z,9.66
2022-11-16T19:13:54.547Z,9.66
2022-11-16T19:16:25.062Z,9.63
2022-11-16T19:18:53.792Z,9.59
2022-11-16T19:21:22.856Z,9.61
2022-11-16T19:23:51.980Z,9.62
2022-11-16T19:26:21.635Z,9.63
2022-11-16T19:28:51.135Z,9.61
2022-11-16T19:31:20.930Z,9.63
2022-11-16T19:33:54.931Z,9.64
2022-11-16T19:36:23.083Z,9.61
2022-11-16T19:38:51.436Z,9.69
2022-11-16T19:41:21.550Z,9.64
2022-11-16T19:43:51.204Z,9.70
2022-11-16T19:46:21.316Z,9.70
2022-11-16T19:48:50.693Z,9.71
2022-11-16T19:51:20.477Z,9.73
2022-11-16T19:53:48.705Z,9.72
2022-11-16T19:56:18.614Z,9.70
2022-11-16T19:58:47.018Z,9.70
2022-11-16T20:01:16.977Z,9.67
2022-11-16T20:03:45.507Z,9.55
2022-11-16T20:06:16.707Z,9.68
2022-11-16T20:08:48.885Z,9.68
2022-11-16T20:11:18.414Z,9.66
2022-11-16T20:13:46.278Z,9.66
2022-11-16T20:16:15.602Z,9.65
2022-11-16T20:18:44.665Z,9.63
2022-11-16T20:21:28.041Z,9.65
2022-11-16T20:24:04.720Z,9.63
2022-11-16T20:26:36.370Z,9.64
2022-11-16T20:29:04.826Z,9.63
2022-11-16T20:31:34.206Z,9.56
2022-11-16T20:34:04.272Z,9.47
2022-11-16T20:36:35.811Z,9.61
2022-11-16T20:39:03.634Z,9.58
2022-11-16T20:41:33.344Z,9.55
2022-11-16T20:44:02.509Z,9.54
2022-11-16T20:46:33.761Z,9.55
2022-11-16T20:49:01.870Z,9.54
2022-11-16T20:51:30.487Z,9.53
2022-11-16T20:53:59.822Z,9.51
2022-11-16T20:56:28.217Z,9.51
2022-11-16T20:58:56.049Z,9.51
2022-11-16T21:01:28.734Z,9.51
2022-11-16T21:03:57.548Z,9.54
2022-11-16T21:06:26.189Z,9.51
2022-11-16T21:08:54.407Z,9.44
2022-11-16T21:11:25.710Z,9.52
2022-11-16T21:14:11.593Z,9.51
2022-11-16T21:16:40.173Z,9.49
2022-11-16T21:19:08.233Z,9.52
2022-11-16T21:21:36.082Z,9.53
2022-11-16T21:24:03.855Z,9.49
2022-11-16T21:26:34.148Z,9.49
2022-11-16T21:29:02.761Z,9.44
2022-11-16T21:31:32.617Z,9.47
2022-11-16T21:34:01.463Z,9.40
2022-11-16T21:36:31.643Z,9.27
2022-11-16T21:38:59.593Z,9.46
2022-11-16T21:41:28.100Z,9.49
2022-11-16T21:43:57.460Z,9.49
2022-11-16T21:46:27.136Z,9.50
2022-11-16T21:48:56.733Z,9.52
2022-11-16T21:51:26.710Z,9.51
2022-11-16T21:53:55.166Z,9.46
2022-11-16T21:56:24.409Z,9.46
2022-11-16T21:58:53.676Z,9.48
2022-11-16T22:01:24.236Z,9.47
2022-11-16T22:04:06.109Z,9.47
2022-11-16T22:06:51.407Z,9.49
2022-11-16T22:09:19.240Z,9.47
2022-11-16T22:11:47.092Z,9.42
2022-11-16T22:14:14.887Z,9.40
2022-11-16T22:16:44.025Z,9.41
2022-11-16T22:19:11.863Z,9.43
2022-11-16T22:21:39.669Z,9.44
2022-11-16T22:24:08.311Z,9.42
2022-11-16T22:26:37.925Z,9.43
2022-11-16T22:29:05.702Z,9.49
2022-11-16T22:31:33.495Z,9.50
2022-11-16T22:34:02.631Z,9.52
2022-11-16T22:36:30.440Z,9.53
2022-11-16T22:38:58.240Z,9.53
2022-11-16T22:41:26.083Z,9.53
2022-11-16T22:43:54.131Z,9.52
2022-11-16T22:46:21.904Z,9.53
2022-11-16T22:48:49.726Z,9.57
2022-11-16T22:51:22.146Z,9.59
2022-11-16T22:53:53.827Z,9.56
2022-11-16T22:56:21.972Z,9.52
2022-11-16T22:58:49.811Z,9.52
2022-11-16T23:01:17.859Z,9.55
2022-11-16T23:03:45.947Z,9.56
2022-11-16T23:06:13.873Z,9.55
2022-11-16T23:08:43.380Z,9.53
2022-11-16T23:11:31.396Z,9.51
2022-11-16T23:14:17.080Z,9.54
2022-11-16T23:16:45.743Z,9.53
2022-11-16T23:19:32.975Z,9.54
2022-11-16T23:22:18.874Z,9.52
2022-11-16T23:25:05.788Z,9.55
2022-11-16T23:27:41.000Z,9.51
2022-11-16T23:30:12.833Z,9.50
2022-11-16T23:32:41.223Z,9.51
2022-11-16T23:35:10.224Z,9.48
2022-11-16T23:37:51.719Z,9.42
2022-11-16T23:40:21.435Z,9.39
2022-11-16T23:43:06.616Z,9.28
2022-11-16T23:45:34.481Z,9.23
2022-11-16T23:48:02.382Z,9.20
2022-11-16T23:50:30.268Z,9.25
2022-11-16T23:52:58.063Z,9.28
2022-11-16T23:55:27.672Z,9.34
2022-11-16T23:57:55.928Z,9.38
